Airfield :







YOU CAN JOIN US ON...

 
LOGIN :

Register | Disclaimer

   EN    FR    IT 

 









Legend :    VFR   Marginal VFR   IFR   Intensive IFR   Very Intensive IFR
Visi :
Ceiling :
>= 8 km
>= 3000ft
5 to 8 km
1000 to 3000 ft
1500m to 5 km
500 to 1000 ft
800 to 1500m
200 to 500 ft
< 800m
< 200 ft
Symbols :   Thunderstorms  Fog  Heavy snow  Heavy precipitations  Wind > 20 kt






- Airport Elevation : 603 ft
- IATA code : LEB


KLEB - Lebanon Municipal

CURRENT METAR :
  • 231753Z 29008G18KT 10SM FEW048 SCT070 17/04 A2982 RMK AO2 SLP092 T01720039 10172 20117 55001

EXPIRED METARs :
  • 231653Z 30009KT 10SM SCT049 OVC060 16/05 A2982 RMK AO2 SLP093 T01610050
  • 231553Z 34007KT 10SM FEW031 BKN060 17/08 A2982 RMK AO2 SLP093 T01670078

TAF KLEB
Valid from the 23 at 18:00 until the 24 at 18:00 UTC


231720Z 2318/2418 30009KT P6SM SCT050 OVC060
FM240000 VRB03KT P6SM FEW035
FM241200 00000KT P6SM BKN250



MET'MAP, your aeronautical weather chart ! - Copyright ORBIFLY December 2007 - Disclaimer

ORBIFLY MET'MAP TEAM :

Programming & Development : Alexandra Zaïnal
Concept & Development : Baudouin d'Aumeries
Co-Development & Prog : Marc-Olivier Méhu
Technical & hardware support : Manuel Goepfert

Contact : metmap@orbifly.com




SOURCES & CREDITS :

   NOAA